Woodsetts, United Kingdom
Current Conditions -  °F | °C
As of 8:50 AM on Saturday 29 Nov 2014 (Local Time) from EGCN Reporting Station
Haze Haze  
Wind Chill: 10°   Ceiling: 1300
Heat Index: 10°   Visibility: 2.5mi
Dew Point:   Wind: 3mph
Humidity: 94%   Direction: NA
Pressure: 29.91"   Gusts: NA
Location:  53.35°N, 1.17°W
Report Text: EGCN 290850Z VRB03KT 4000 BR FEW008 BKN013 10/09 Q1013
Loading
Personal Weather Stations






























Interactive Weather Map New forecast layout! Learn more

10-Day Weather Forecast

Advertisements
Track Severe Weather on mobile